createdAt,value
2018-07-27T00:00:04.261Z,0.00
2018-07-27T00:01:04.288Z,0.00
2018-07-27T00:02:04.268Z,0.00
2018-07-27T00:03:04.342Z,0.00
2018-07-27T00:04:04.362Z,0.00
2018-07-27T00:05:04.329Z,0.00
2018-07-27T00:06:04.351Z,0.00
2018-07-27T00:07:04.385Z,0.00
2018-07-27T00:08:04.391Z,0.00
2018-07-27T00:09:04.425Z,0.00
2018-07-27T00:10:04.405Z,0.00
2018-07-27T00:11:04.453Z,0.00
2018-07-27T00:12:04.461Z,0.00
2018-07-27T00:13:04.480Z,0.00
2018-07-27T00:14:04.465Z,0.00
2018-07-27T00:15:04.520Z,0.00
2018-07-27T00:16:04.502Z,0.00
2018-07-27T00:17:04.472Z,0.00
2018-07-27T00:18:04.535Z,0.00
2018-07-27T00:19:04.548Z,0.00
2018-07-27T00:20:04.630Z,0.00
2018-07-27T00:21:04.571Z,0.00
2018-07-27T00:22:04.580Z,0.00
2018-07-27T00:23:04.585Z,0.00
2018-07-27T00:24:04.595Z,0.00
2018-07-27T00:25:04.665Z,0.00
2018-07-27T00:26:04.639Z,0.00
2018-07-27T00:27:04.668Z,0.00
2018-07-27T00:28:04.679Z,0.00
2018-07-27T00:29:04.732Z,0.00
2018-07-27T00:30:04.738Z,0.00
2018-07-27T00:31:04.767Z,0.00
2018-07-27T00:32:04.757Z,0.00
2018-07-27T00:33:04.745Z,0.00
2018-07-27T00:34:04.746Z,0.00
2018-07-27T00:35:04.874Z,0.00
2018-07-27T00:36:04.834Z,0.00
2018-07-27T00:37:04.838Z,0.00
2018-07-27T00:38:04.847Z,0.00
2018-07-27T00:39:04.880Z,0.00
2018-07-27T00:40:04.844Z,0.00
2018-07-27T00:41:04.852Z,0.00
2018-07-27T00:42:04.877Z,0.00
2018-07-27T00:43:04.883Z,0.00
2018-07-27T00:44:04.946Z,0.00
2018-07-27T00:45:04.900Z,0.00
2018-07-27T00:46:05.057Z,0.00
2018-07-27T00:47:05.001Z,0.00
2018-07-27T00:48:04.956Z,0.00
2018-07-27T00:49:05.076Z,0.00
2018-07-27T00:50:05.001Z,0.00
2018-07-27T00:51:04.992Z,0.00
2018-07-27T00:52:05.070Z,0.00
2018-07-27T00:53:05.046Z,0.00
2018-07-27T00:54:05.111Z,0.00
2018-07-27T00:55:05.088Z,0.00
2018-07-27T00:56:05.179Z,0.00
2018-07-27T00:57:05.157Z,0.00
2018-07-27T00:58:05.097Z,0.00
2018-07-27T00:59:05.113Z,0.00
2018-07-27T01:00:05.163Z,0.00
2018-07-27T01:01:05.179Z,0.00
2018-07-27T01:02:05.169Z,0.00
2018-07-27T01:03:05.192Z,0.00
2018-07-27T01:04:05.168Z,0.00
2018-07-27T01:05:05.215Z,0.00
2018-07-27T01:06:05.267Z,0.00
2018-07-27T01:07:05.251Z,0.00
2018-07-27T01:08:05.246Z,0.00
2018-07-27T01:09:05.336Z,0.00
2018-07-27T01:10:05.328Z,0.00
2018-07-27T01:11:05.294Z,0.00
2018-07-27T01:12:05.343Z,0.00
2018-07-27T01:13:05.330Z,0.00
2018-07-27T01:14:05.334Z,0.00
2018-07-27T01:15:05.340Z,0.00
2018-07-27T01:16:05.371Z,0.00
2018-07-27T01:17:05.398Z,0.00
2018-07-27T01:18:05.380Z,0.00
2018-07-27T01:19:05.478Z,0.00
2018-07-27T01:20:05.449Z,0.00
2018-07-27T01:21:05.442Z,0.00
2018-07-27T01:22:05.434Z,0.00
2018-07-27T01:23:05.494Z,0.00
2018-07-27T01:24:05.511Z,0.00
2018-07-27T01:25:05.563Z,0.00
2018-07-27T01:26:05.519Z,0.00
2018-07-27T01:27:05.537Z,0.00
2018-07-27T01:28:05.507Z,0.00
2018-07-27T01:29:05.555Z,0.00
2018-07-27T01:30:05.568Z,0.00
2018-07-27T01:31:05.644Z,0.00
2018-07-27T01:32:05.566Z,0.00
2018-07-27T01:33:05.637Z,0.00
2018-07-27T01:34:05.598Z,0.00
2018-07-27T01:35:05.645Z,0.00
2018-07-27T01:36:05.706Z,0.00
2018-07-27T01:37:05.697Z,0.00
2018-07-27T01:38:05.695Z,0.00
2018-07-27T01:39:05.728Z,0.00
2018-07-27T01:40:05.705Z,0.00
2018-07-27T01:41:05.712Z,0.00
2018-07-27T01:42:05.730Z,0.00
2018-07-27T01:43:05.980Z,0.00
2018-07-27T01:44:05.787Z,0.00
2018-07-27T01:45:05.801Z,0.00
2018-07-27T01:46:05.770Z,0.00
2018-07-27T01:47:05.792Z,0.00
2018-07-27T01:48:05.796Z,0.00
2018-07-27T01:49:05.892Z,0.00
2018-07-27T01:50:05.860Z,0.00
2018-07-27T01:51:05.889Z,0.00
2018-07-27T01:52:05.871Z,0.00
2018-07-27T01:53:05.918Z,0.00
2018-07-27T01:54:05.898Z,0.00
2018-07-27T01:55:05.923Z,0.00
2018-07-27T01:56:05.939Z,0.00
2018-07-27T01:57:05.903Z,0.00
2018-07-27T01:58:05.949Z,0.00
2018-07-27T01:59:05.932Z,0.00
2018-07-27T02:00:06.084Z,0.00
2018-07-27T02:01:05.990Z,0.00
2018-07-27T02:02:05.993Z,0.00
2018-07-27T02:03:06.014Z,0.00
2018-07-27T02:04:06.010Z,0.00
2018-07-27T02:05:06.014Z,0.00
2018-07-27T02:06:06.085Z,0.00
2018-07-27T02:07:06.126Z,0.00
2018-07-27T02:08:06.075Z,0.00
2018-07-27T02:09:06.067Z,0.00
2018-07-27T02:10:06.101Z,0.00
2018-07-27T02:11:06.128Z,0.00
2018-07-27T02:12:06.407Z,0.00
2018-07-27T02:13:06.235Z,0.00
2018-07-27T02:14:06.218Z,0.00
2018-07-27T02:15:06.215Z,0.00
2018-07-27T02:16:06.201Z,0.00
2018-07-27T02:17:06.218Z,0.00
2018-07-27T02:18:06.219Z,0.00
2018-07-27T02:19:06.327Z,0.00
2018-07-27T02:20:06.307Z,0.00
2018-07-27T02:21:06.245Z,0.00
2018-07-27T02:22:06.276Z,0.00
2018-07-27T02:23:06.330Z,0.00
2018-07-27T02:24:06.366Z,0.00
2018-07-27T02:25:06.395Z,0.00
2018-07-27T02:26:06.342Z,0.00
2018-07-27T02:27:06.356Z,0.00
2018-07-27T02:28:06.351Z,0.00
2018-07-27T02:29:06.532Z,0.00
2018-07-27T02:30:06.438Z,0.00
2018-07-27T02:31:06.420Z,0.00
2018-07-27T02:32:06.423Z,0.00
2018-07-27T02:33:06.452Z,0.00
2018-07-27T02:34:06.469Z,0.00
2018-07-27T02:35:06.532Z,4.00
2018-07-27T02:36:06.468Z,4.00
2018-07-27T02:37:06.526Z,4.00
2018-07-27T02:38:06.493Z,0.00
2018-07-27T02:39:06.512Z,0.00
2018-07-27T02:40:06.615Z,4.00
2018-07-27T02:41:06.576Z,0.00
2018-07-27T02:42:06.641Z,4.00
2018-07-27T02:43:06.589Z,4.00
2018-07-27T02:44:06.617Z,4.00
2018-07-27T02:45:06.638Z,4.00
2018-07-27T02:46:06.622Z,8.00
2018-07-27T02:47:06.653Z,8.00
2018-07-27T02:48:06.783Z,8.00
2018-07-27T02:49:06.706Z,8.00
2018-07-27T02:50:06.717Z,12.00
2018-07-27T02:51:06.678Z,12.00
2018-07-27T02:52:06.727Z,16.00
2018-07-27T02:53:06.787Z,16.00
2018-07-27T02:54:06.741Z,20.00
2018-07-27T02:55:06.759Z,20.00
2018-07-27T02:56:06.752Z,24.00
2018-07-27T02:57:06.785Z,24.00
2018-07-27T02:58:06.810Z,28.00
2018-07-27T02:59:06.786Z,32.00
2018-07-27T03:00:06.847Z,32.00
2018-07-27T03:01:06.887Z,40.00
2018-07-27T03:02:06.835Z,40.00
2018-07-27T03:03:06.863Z,48.00
2018-07-27T03:04:06.860Z,52.00
2018-07-27T03:05:06.930Z,60.00
2018-07-27T03:06:06.980Z,68.00
2018-07-27T03:07:06.906Z,72.00
2018-07-27T03:08:06.924Z,80.00
2018-07-27T03:09:06.967Z,88.00
2018-07-27T03:10:06.959Z,96.00
2018-07-27T03:11:06.994Z,104.00
2018-07-27T03:12:06.983Z,112.00
2018-07-27T03:13:07.038Z,120.00
2018-07-27T03:14:07.053Z,132.00
2018-07-27T03:15:07.029Z,144.00
2018-07-27T03:16:07.038Z,156.00
2018-07-27T03:17:07.119Z,168.00
2018-07-27T03:18:07.086Z,180.00
2018-07-27T03:19:07.097Z,192.00
2018-07-27T03:20:07.129Z,208.00
2018-07-27T03:21:07.081Z,220.00
2018-07-27T03:22:07.139Z,232.00
2018-07-27T03:23:07.142Z,252.00
2018-07-27T03:24:07.158Z,268.00
2018-07-27T03:25:07.198Z,284.00
2018-07-27T03:26:07.298Z,304.00
2018-07-27T03:27:07.187Z,316.00
2018-07-27T03:28:07.208Z,340.00
2018-07-27T03:29:07.350Z,356.00
2018-07-27T03:30:07.289Z,376.00
2018-07-27T03:31:07.275Z,396.00
2018-07-27T03:32:07.266Z,416.00
2018-07-27T03:33:07.338Z,436.00
2018-07-27T03:34:07.354Z,460.00
2018-07-27T03:35:07.329Z,484.00
2018-07-27T03:36:07.335Z,508.00
2018-07-27T03:37:07.387Z,532.00
2018-07-27T03:38:07.370Z,556.00
2018-07-27T03:39:07.368Z,580.00
2018-07-27T03:40:07.403Z,612.00
2018-07-27T03:41:07.413Z,640.00
2018-07-27T03:42:07.557Z,668.00
2018-07-27T03:43:07.470Z,700.00
2018-07-27T03:44:07.451Z,736.00
2018-07-27T03:45:07.491Z,780.00
2018-07-27T03:46:07.484Z,824.00
2018-07-27T03:47:07.505Z,860.00
2018-07-27T03:48:07.563Z,892.00
2018-07-27T03:49:07.538Z,936.00
2018-07-27T03:50:07.513Z,980.00
2018-07-27T03:51:07.536Z,1016.00
2018-07-27T03:52:07.560Z,1068.00
2018-07-27T03:53:07.605Z,1116.00
2018-07-27T03:54:07.573Z,1168.00
2018-07-27T03:55:07.577Z,1212.00
2018-07-27T03:56:07.631Z,1224.00
2018-07-27T03:57:07.676Z,1312.00
2018-07-27T03:58:07.630Z,1352.00
2018-07-27T03:59:07.612Z,1420.00
2018-07-27T04:00:07.695Z,1480.00
2018-07-27T04:01:07.678Z,1500.00
2018-07-27T04:02:07.681Z,1560.00
2018-07-27T04:03:07.743Z,1624.00
2018-07-27T04:04:07.711Z,1660.00
2018-07-27T04:05:07.748Z,1716.00
2018-07-27T04:06:07.752Z,1764.00
2018-07-27T04:07:07.773Z,1824.00
2018-07-27T04:08:07.773Z,1892.00
2018-07-27T04:09:07.819Z,1956.00
2018-07-27T04:10:07.834Z,2012.00
2018-07-27T04:11:07.817Z,2080.00
2018-07-27T04:12:07.834Z,2128.00
2018-07-27T04:13:07.808Z,2188.00
2018-07-27T04:14:07.868Z,2248.00
2018-07-27T04:15:07.867Z,2312.00
2018-07-27T04:16:07.912Z,2356.00
2018-07-27T04:17:07.887Z,2424.00
2018-07-27T04:18:07.898Z,2484.00
2018-07-27T04:19:07.967Z,2528.00
2018-07-27T04:20:07.964Z,2580.00
2018-07-27T04:21:07.956Z,2576.00
2018-07-27T04:22:07.951Z,2688.00
2018-07-27T04:23:07.967Z,2752.00
2018-07-27T04:24:07.971Z,2812.00
2018-07-27T04:25:08.020Z,2864.00
2018-07-27T04:26:08.048Z,2348.00
2018-07-27T04:27:08.021Z,2952.00
2018-07-27T04:28:08.042Z,2976.00
2018-07-27T04:29:08.048Z,3128.00
2018-07-27T04:30:08.077Z,3200.00
2018-07-27T04:31:08.079Z,3296.00
2018-07-27T04:32:08.132Z,3376.00
2018-07-27T04:33:08.137Z,3436.00
2018-07-27T04:34:08.136Z,3496.00
2018-07-27T04:35:08.154Z,3564.00
2018-07-27T04:36:08.186Z,3604.00
2018-07-27T04:37:08.220Z,3628.00
2018-07-27T04:38:08.236Z,3700.00
2018-07-27T04:39:08.192Z,3756.00
2018-07-27T04:40:08.186Z,3840.00
2018-07-27T04:41:08.264Z,3908.00
2018-07-27T04:42:08.239Z,3944.00
2018-07-27T04:43:08.280Z,4080.00
2018-07-27T04:44:08.261Z,4256.00
2018-07-27T04:45:08.295Z,4268.00
2018-07-27T04:46:08.299Z,4356.00
2018-07-27T04:47:08.287Z,4440.00
2018-07-27T04:48:08.348Z,4436.00
2018-07-27T04:49:08.361Z,4576.00
2018-07-27T04:50:08.345Z,4736.00
2018-07-27T04:51:08.370Z,4704.00
2018-07-27T04:52:08.372Z,4804.00
2018-07-27T04:53:08.420Z,4912.00
2018-07-27T04:54:08.437Z,5044.00
2018-07-27T04:55:08.436Z,5128.00
2018-07-27T04:56:08.554Z,5224.00
2018-07-27T04:57:08.441Z,5188.00
2018-07-27T04:58:08.494Z,5316.00
2018-07-27T04:59:08.532Z,5380.00
2018-07-27T05:00:08.502Z,5452.00
2018-07-27T05:01:08.510Z,5496.00
2018-07-27T05:02:08.526Z,5584.00
2018-07-27T05:03:08.690Z,5684.00
2018-07-27T05:04:08.607Z,5760.00
2018-07-27T05:05:08.594Z,5896.00
2018-07-27T05:06:08.583Z,5928.00
2018-07-27T05:07:08.613Z,6160.00
2018-07-27T05:08:08.611Z,6260.00
2018-07-27T05:09:08.631Z,6396.00
2018-07-27T05:10:08.686Z,6516.00
2018-07-27T05:11:08.690Z,6640.00
2018-07-27T05:12:08.804Z,6800.00
2018-07-27T05:13:08.733Z,6744.00
2018-07-27T05:14:08.771Z,6936.00
2018-07-27T05:15:09.019Z,7004.00
2018-07-27T05:16:08.815Z,7116.00
2018-07-27T05:17:08.751Z,7204.00
2018-07-27T05:18:08.835Z,7340.00
2018-07-27T05:19:08.789Z,7420.00
2018-07-27T05:20:08.804Z,7700.00
2018-07-27T05:21:08.825Z,7540.00
2018-07-27T05:22:09.011Z,7552.00
2018-07-27T05:23:08.846Z,7736.00
2018-07-27T05:24:08.860Z,7704.00
2018-07-27T05:25:08.892Z,7744.00
2018-07-27T05:26:08.937Z,7976.00
2018-07-27T05:27:08.912Z,7860.00
2018-07-27T05:28:08.942Z,7908.00
2018-07-27T05:29:08.998Z,8012.00
2018-07-27T05:30:08.939Z,8092.00
2018-07-27T05:31:09.008Z,8224.00
2018-07-27T05:32:08.992Z,8420.00
2018-07-27T05:33:09.037Z,8460.00
2018-07-27T05:34:09.027Z,8524.00
2018-07-27T05:35:09.027Z,8652.00
2018-07-27T05:36:09.069Z,8712.00
2018-07-27T05:37:09.085Z,8820.00
2018-07-27T05:38:09.148Z,8892.00
2018-07-27T05:39:09.115Z,8968.00
2018-07-27T05:40:09.124Z,9036.00
2018-07-27T05:41:09.184Z,9052.00
2018-07-27T05:42:09.161Z,9144.00
2018-07-27T05:43:09.269Z,9188.00
2018-07-27T05:44:09.224Z,9292.00
2018-07-27T05:45:09.212Z,9368.00
2018-07-27T05:46:09.216Z,9468.00
2018-07-27T05:47:09.288Z,9424.00
2018-07-27T05:48:09.288Z,9536.00
2018-07-27T05:49:09.312Z,9560.00
2018-07-27T05:50:09.290Z,9508.00
2018-07-27T05:51:09.338Z,9540.00
2018-07-27T05:52:09.444Z,9564.00
2018-07-27T05:53:09.352Z,9688.00
2018-07-27T05:54:09.399Z,9688.00
2018-07-27T05:55:10.213Z,9816.00
2018-07-27T05:56:09.704Z,9860.00
2018-07-27T05:57:09.486Z,9848.00
2018-07-27T05:58:09.571Z,9904.00
2018-07-27T05:59:09.461Z,10044.00
2018-07-27T06:00:09.491Z,9932.00
2018-07-27T06:01:09.590Z,10068.00
2018-07-27T06:02:10.438Z,10064.00
2018-07-27T06:03:09.521Z,10052.00
2018-07-27T06:04:09.566Z,10188.00
2018-07-27T06:05:09.578Z,10136.00
2018-07-27T06:06:09.612Z,10152.00
2018-07-27T06:07:09.714Z,10280.00
2018-07-27T06:08:09.609Z,10276.00
2018-07-27T06:09:09.615Z,10372.00
2018-07-27T06:10:09.640Z,10368.00
2018-07-27T06:11:09.681Z,10392.00
2018-07-27T06:12:09.728Z,10352.00
2018-07-27T06:13:09.715Z,10544.00
2018-07-27T06:14:09.787Z,10428.00
2018-07-27T06:15:09.739Z,10492.00
2018-07-27T06:16:09.813Z,10680.00
2018-07-27T06:17:09.775Z,10628.00
2018-07-27T06:18:09.932Z,10624.00
2018-07-27T06:19:09.826Z,10804.00
2018-07-27T06:20:09.819Z,10660.00
2018-07-27T06:21:09.905Z,10636.00
2018-07-27T06:22:09.899Z,10604.00
2018-07-27T06:23:09.896Z,10456.00
2018-07-27T06:24:10.008Z,10456.00
2018-07-27T06:25:09.920Z,10456.00
2018-07-27T06:26:09.994Z,10340.00
2018-07-27T06:27:09.963Z,10280.00
2018-07-27T06:28:10.048Z,10320.00
2018-07-27T06:29:10.053Z,10252.00
2018-07-27T06:30:10.080Z,10144.00
2018-07-27T06:31:10.035Z,9880.00
2018-07-27T06:32:10.091Z,9688.00
2018-07-27T06:33:10.086Z,9608.00
2018-07-27T06:34:10.106Z,9536.00
2018-07-27T06:35:10.152Z,9516.00
2018-07-27T06:36:10.132Z,9444.00
2018-07-27T06:37:10.172Z,9336.00
2018-07-27T06:38:10.402Z,9236.00
2018-07-27T06:39:10.388Z,9032.00
2018-07-27T06:40:10.878Z,8904.00
2018-07-27T06:41:10.247Z,8768.00
2018-07-27T06:42:10.506Z,8664.00
2018-07-27T06:43:10.321Z,8544.00
2018-07-27T06:44:10.691Z,8416.00
2018-07-27T06:45:10.401Z,8296.00
2018-07-27T06:46:10.354Z,8048.00
2018-07-27T06:47:10.513Z,8048.00
2018-07-27T06:48:10.378Z,7924.00
2018-07-27T06:49:10.381Z,7804.00
2018-07-27T06:50:10.399Z,7736.00
2018-07-27T06:51:10.414Z,7612.00
2018-07-27T06:52:10.457Z,7504.00
2018-07-27T06:53:10.454Z,7396.00
2018-07-27T06:54:10.553Z,7296.00
2018-07-27T06:55:10.485Z,7276.00
2018-07-27T06:56:10.499Z,6888.00
2018-07-27T06:57:10.549Z,6812.00
2018-07-27T06:58:10.538Z,6644.00
2018-07-27T06:59:10.629Z,6448.00
2018-07-27T07:00:10.603Z,6248.00
2018-07-27T07:01:10.690Z,6016.00
2018-07-27T07:02:10.627Z,5476.00
2018-07-27T07:03:10.642Z,5052.00
2018-07-27T07:04:10.746Z,4604.00
2018-07-27T07:05:10.703Z,4244.00
2018-07-27T07:06:10.702Z,3976.00
2018-07-27T07:07:10.762Z,3980.00
2018-07-27T07:08:11.373Z,3972.00
2018-07-27T07:09:10.784Z,3960.00
2018-07-27T07:10:10.773Z,3944.00
2018-07-27T07:11:10.773Z,3920.00
2018-07-27T07:12:10.846Z,3900.00
2018-07-27T07:13:10.869Z,3888.00
2018-07-27T07:14:10.882Z,3884.00
2018-07-27T07:15:10.912Z,3884.00
2018-07-27T07:16:10.881Z,3868.00
2018-07-27T07:17:10.921Z,3852.00
2018-07-27T07:18:10.924Z,3840.00
2018-07-27T07:19:10.984Z,3832.00
2018-07-27T07:20:10.972Z,3816.00
2018-07-27T07:21:11.012Z,3796.00
2018-07-27T07:22:10.995Z,3784.00
2018-07-27T07:23:11.094Z,3764.00
2018-07-27T07:24:11.052Z,3748.00
2018-07-27T07:25:11.167Z,3704.00
2018-07-27T07:26:11.371Z,3672.00
2018-07-27T07:27:11.150Z,3692.00
2018-07-27T07:28:11.129Z,3660.00
2018-07-27T07:29:11.159Z,3668.00
2018-07-27T07:30:11.132Z,3648.00
2018-07-27T07:31:11.171Z,3628.00
2018-07-27T07:32:11.233Z,3616.00
2018-07-27T07:33:11.205Z,3612.00
2018-07-27T07:34:11.219Z,3512.00
2018-07-27T07:35:11.226Z,3640.00
2018-07-27T07:36:11.274Z,3584.00
2018-07-27T07:37:11.286Z,3612.00
2018-07-27T07:38:11.285Z,3596.00
2018-07-27T07:39:11.405Z,3580.00
2018-07-27T07:40:11.331Z,3548.00
2018-07-27T07:41:11.346Z,3540.00
2018-07-27T07:42:11.358Z,3544.00
2018-07-27T07:43:11.435Z,3548.00
2018-07-27T07:44:11.451Z,3544.00
2018-07-27T07:45:11.479Z,3492.00
2018-07-27T07:46:11.407Z,3476.00
2018-07-27T07:47:11.458Z,3436.00
2018-07-27T07:48:11.456Z,3492.00
2018-07-27T07:49:11.929Z,3496.00
2018-07-27T07:50:12.151Z,3484.00
2018-07-27T07:51:11.550Z,3472.00
2018-07-27T07:52:11.658Z,3484.00
2018-07-27T07:53:11.619Z,3456.00
2018-07-27T07:54:11.568Z,3444.00
2018-07-27T07:55:11.635Z,3424.00
2018-07-27T07:56:11.935Z,3412.00
2018-07-27T07:57:11.630Z,3392.00
2018-07-27T07:58:12.016Z,3384.00
2018-07-27T07:59:11.652Z,3368.00
2018-07-27T08:00:11.697Z,3368.00
2018-07-27T08:01:11.681Z,3328.00
2018-07-27T08:02:12.171Z,3364.00
2018-07-27T08:03:11.785Z,3340.00
2018-07-27T08:04:11.828Z,3300.00
2018-07-27T08:05:11.984Z,3140.00
2018-07-27T08:06:11.914Z,3288.00
2018-07-27T08:07:12.051Z,3156.00
2018-07-27T08:08:11.870Z,3244.00
2018-07-27T08:09:12.029Z,3156.00
2018-07-27T08:10:11.870Z,3200.00
2018-07-27T08:11:12.207Z,3204.00
2018-07-27T08:12:11.970Z,3204.00
2018-07-27T08:13:11.964Z,3168.00
2018-07-27T08:14:12.024Z,3180.00
2018-07-27T08:15:12.025Z,3180.00
2018-07-27T08:16:12.132Z,3172.00
2018-07-27T08:17:12.143Z,3164.00
2018-07-27T08:18:12.665Z,3188.00
2018-07-27T08:19:12.006Z,3172.00
2018-07-27T08:20:12.042Z,3164.00
2018-07-27T08:21:12.020Z,3004.00
2018-07-27T08:22:12.091Z,3112.00
2018-07-27T08:23:12.075Z,3092.00
2018-07-27T08:24:12.128Z,3124.00
2018-07-27T08:25:12.118Z,3176.00
2018-07-27T08:26:12.216Z,2784.00
2018-07-27T08:27:12.148Z,3040.00
2018-07-27T08:28:12.155Z,3188.00
2018-07-27T08:29:12.198Z,3112.00
2018-07-27T08:30:12.239Z,3200.00
2018-07-27T08:31:12.223Z,3168.00
2018-07-27T08:32:12.230Z,3132.00
2018-07-27T08:33:12.249Z,3104.00
2018-07-27T08:34:12.235Z,3120.00
2018-07-27T08:35:12.332Z,3152.00
2018-07-27T08:36:12.291Z,3160.00
2018-07-27T08:37:12.385Z,3188.00
2018-07-27T08:38:12.349Z,3184.00
2018-07-27T08:39:12.342Z,3204.00
2018-07-27T08:40:12.340Z,3252.00
2018-07-27T08:41:12.383Z,3228.00
2018-07-27T08:42:12.428Z,3148.00
2018-07-27T08:43:12.404Z,3016.00
2018-07-27T08:44:12.452Z,3220.00
2018-07-27T08:45:12.450Z,3232.00
2018-07-27T08:46:12.473Z,3248.00
2018-07-27T08:47:12.534Z,3368.00
2018-07-27T08:48:12.512Z,3712.00
2018-07-27T08:49:12.550Z,4556.00
2018-07-27T08:50:12.566Z,5584.00
2018-07-27T08:51:12.526Z,5156.00
2018-07-27T08:52:12.562Z,4684.00
2018-07-27T08:53:12.593Z,4068.00
2018-07-27T08:54:12.615Z,4064.00
2018-07-27T08:55:12.712Z,4536.00
2018-07-27T08:56:12.667Z,4812.00
2018-07-27T08:57:12.670Z,5028.00
2018-07-27T08:58:12.674Z,5200.00
2018-07-27T08:59:12.894Z,5356.00
2018-07-27T09:00:12.740Z,5596.00
2018-07-27T09:01:12.747Z,6088.00
2018-07-27T09:02:12.780Z,6188.00
2018-07-27T09:03:12.782Z,6128.00
2018-07-27T09:04:12.816Z,6604.00
2018-07-27T09:05:12.786Z,6368.00
2018-07-27T09:06:12.812Z,6484.00
2018-07-27T09:07:12.850Z,4720.00
2018-07-27T09:08:12.831Z,5680.00
2018-07-27T09:09:13.070Z,5600.00
2018-07-27T09:10:12.923Z,5260.00
2018-07-27T09:11:12.935Z,4768.00
2018-07-27T09:12:13.175Z,4488.00
2018-07-27T09:13:12.957Z,4412.00
2018-07-27T09:14:12.976Z,4324.00
2018-07-27T09:15:12.967Z,4248.00
2018-07-27T09:16:12.984Z,4468.00
2018-07-27T09:17:13.005Z,5044.00
2018-07-27T09:18:13.029Z,5612.00
2018-07-27T09:19:13.098Z,6332.00
2018-07-27T09:20:13.024Z,7036.00
2018-07-27T09:21:13.081Z,6856.00
2018-07-27T09:22:13.097Z,6376.00
2018-07-27T09:23:13.116Z,6752.00
2018-07-27T09:24:13.250Z,6804.00
2018-07-27T09:25:13.458Z,7328.00
2018-07-27T09:26:13.165Z,8104.00
2018-07-27T09:27:13.200Z,7248.00
2018-07-27T09:28:13.198Z,7468.00
2018-07-27T09:29:13.246Z,7796.00
2018-07-27T09:30:13.276Z,7684.00
2018-07-27T09:31:13.276Z,6584.00
2018-07-27T09:32:13.318Z,5776.00
2018-07-27T09:33:13.267Z,5844.00
2018-07-27T09:34:13.331Z,5436.00
2018-07-27T09:35:13.376Z,4648.00
2018-07-27T09:36:13.380Z,5328.00
2018-07-27T09:37:13.338Z,5084.00
2018-07-27T09:38:13.402Z,5004.00
2018-07-27T09:39:13.408Z,4636.00
2018-07-27T09:40:13.451Z,4504.00
2018-07-27T09:41:13.463Z,3548.00
2018-07-27T09:42:13.442Z,3884.00
2018-07-27T09:43:13.465Z,4292.00
2018-07-27T09:44:13.688Z,4412.00
2018-07-27T09:45:13.505Z,4684.00
2018-07-27T09:46:13.573Z,4824.00
2018-07-27T09:47:13.507Z,4796.00
2018-07-27T09:48:13.584Z,4756.00
2018-07-27T09:49:13.585Z,3608.00
2018-07-27T09:50:13.591Z,3644.00
2018-07-27T09:51:13.583Z,4260.00
2018-07-27T09:52:13.647Z,3492.00
2018-07-27T09:53:13.700Z,4228.00
2018-07-27T09:54:13.649Z,3872.00
2018-07-27T09:55:13.689Z,3640.00
2018-07-27T09:56:13.778Z,3576.00
2018-07-27T09:57:13.713Z,3428.00
2018-07-27T09:58:13.789Z,3380.00
2018-07-27T09:59:13.796Z,3744.00
2018-07-27T10:00:13.797Z,3688.00
2018-07-27T10:01:13.841Z,3312.00
2018-07-27T10:02:13.816Z,3428.00
2018-07-27T10:03:13.833Z,2900.00
2018-07-27T10:04:13.868Z,3620.00
2018-07-27T10:05:13.868Z,2852.00
2018-07-27T10:06:13.947Z,3084.00
2018-07-27T10:07:13.941Z,3448.00
2018-07-27T10:08:13.921Z,3064.00
2018-07-27T10:09:13.948Z,2940.00
2018-07-27T10:10:13.974Z,3264.00
2018-07-27T10:11:13.981Z,2972.00
2018-07-27T10:12:13.968Z,3052.00
2018-07-27T10:13:14.010Z,3688.00
2018-07-27T10:14:14.012Z,3116.00
2018-07-27T10:15:14.058Z,3172.00
2018-07-27T10:16:14.073Z,3040.00
2018-07-27T10:17:14.032Z,2920.00
2018-07-27T10:18:14.073Z,3256.00
2018-07-27T10:19:14.097Z,3396.00
2018-07-27T10:20:14.228Z,3464.00
2018-07-27T10:21:14.169Z,3784.00
2018-07-27T10:22:14.295Z,3676.00
2018-07-27T10:23:14.190Z,3596.00
2018-07-27T10:24:14.248Z,3796.00
2018-07-27T10:25:14.255Z,3908.00
2018-07-27T10:26:14.421Z,4052.00
2018-07-27T10:27:14.263Z,4244.00
2018-07-27T10:28:14.253Z,4136.00
2018-07-27T10:29:14.294Z,4372.00
2018-07-27T10:30:14.321Z,4448.00
2018-07-27T10:31:14.345Z,4072.00
2018-07-27T10:32:14.353Z,4848.00
2018-07-27T10:33:14.333Z,5008.00
2018-07-27T10:34:14.351Z,5076.00
2018-07-27T10:35:14.400Z,5356.00
2018-07-27T10:36:14.388Z,4728.00
2018-07-27T10:37:14.468Z,4480.00
2018-07-27T10:38:14.409Z,4192.00
2018-07-27T10:39:14.418Z,4028.00
2018-07-27T10:40:14.467Z,4200.00
2018-07-27T10:41:14.564Z,3620.00
2018-07-27T10:42:14.557Z,3516.00
2018-07-27T10:43:14.636Z,3392.00
2018-07-27T10:44:14.552Z,3160.00
2018-07-27T10:45:14.572Z,3400.00
2018-07-27T10:46:14.619Z,3064.00
2018-07-27T10:47:14.581Z,3256.00
2018-07-27T10:48:14.650Z,3556.00
2018-07-27T10:49:14.665Z,4100.00
2018-07-27T10:50:14.765Z,3868.00
2018-07-27T10:51:14.700Z,4268.00
2018-07-27T10:52:14.704Z,4228.00
2018-07-27T10:53:14.790Z,6148.00
2018-07-27T10:54:14.732Z,6692.00
2018-07-27T10:55:14.771Z,4548.00
2018-07-27T10:56:14.834Z,4980.00
2018-07-27T10:57:14.840Z,5224.00
2018-07-27T10:58:14.875Z,3604.00
2018-07-27T10:59:14.790Z,3540.00
2018-07-27T11:00:14.857Z,3544.00
2018-07-27T11:01:14.830Z,3732.00
2018-07-27T11:02:14.971Z,3992.00
2018-07-27T11:03:14.860Z,4668.00
2018-07-27T11:04:14.918Z,4588.00
2018-07-27T11:05:14.957Z,4960.00
2018-07-27T11:06:14.930Z,5744.00
2018-07-27T11:07:14.948Z,5720.00
2018-07-27T11:08:14.970Z,9040.00
2018-07-27T11:09:15.041Z,8436.00
2018-07-27T11:10:15.009Z,8720.00
2018-07-27T11:11:15.010Z,6292.00
2018-07-27T11:12:15.142Z,5060.00
2018-07-27T11:13:15.145Z,4512.00
2018-07-27T11:14:15.074Z,4192.00
2018-07-27T11:15:15.163Z,4332.00
2018-07-27T11:16:15.203Z,4392.00
2018-07-27T11:17:15.194Z,4400.00
2018-07-27T11:18:15.248Z,4336.00
2018-07-27T11:19:15.172Z,4260.00
2018-07-27T11:20:15.203Z,4452.00
2018-07-27T11:21:15.234Z,4956.00
2018-07-27T11:22:15.248Z,4952.00
2018-07-27T11:23:15.303Z,5332.00
2018-07-27T11:24:15.295Z,3536.00
2018-07-27T11:25:15.304Z,4716.00
2018-07-27T11:26:15.302Z,3772.00
2018-07-27T11:27:15.294Z,3460.00
2018-07-27T11:28:15.368Z,3188.00
2018-07-27T11:29:15.501Z,2664.00
2018-07-27T11:30:15.381Z,2592.00
2018-07-27T11:31:15.529Z,2900.00
2018-07-27T11:32:15.390Z,3160.00
2018-07-27T11:33:15.425Z,3112.00
2018-07-27T11:34:15.495Z,2260.00
2018-07-27T11:35:15.512Z,2348.00
2018-07-27T11:36:15.468Z,2280.00
2018-07-27T11:37:15.563Z,2496.00
2018-07-27T11:38:15.512Z,2388.00
2018-07-27T11:39:15.531Z,2316.00
2018-07-27T11:40:15.550Z,2600.00
2018-07-27T11:41:15.546Z,2552.00
2018-07-27T11:42:15.686Z,2400.00
2018-07-27T11:43:15.590Z,2480.00
2018-07-27T11:44:15.676Z,2736.00
2018-07-27T11:45:15.630Z,2388.00
2018-07-27T11:46:15.628Z,2112.00
2018-07-27T11:47:15.713Z,2112.00
2018-07-27T11:48:15.726Z,2112.00
2018-07-27T11:49:15.714Z,2152.00
2018-07-27T11:50:15.728Z,2220.00
2018-07-27T11:51:15.723Z,2248.00
2018-07-27T11:52:15.754Z,2212.00
2018-07-27T11:53:15.779Z,2156.00
2018-07-27T11:54:15.867Z,2468.00
2018-07-27T11:55:15.829Z,2520.00
2018-07-27T11:56:15.810Z,2512.00
2018-07-27T11:57:15.818Z,2440.00
2018-07-27T11:58:15.883Z,2700.00
2018-07-27T11:59:15.912Z,2456.00
2018-07-27T12:00:16.005Z,2488.00
2018-07-27T12:01:15.902Z,2500.00
2018-07-27T12:02:15.971Z,2472.00
2018-07-27T12:03:15.965Z,2604.00
2018-07-27T12:04:15.967Z,2816.00
2018-07-27T12:05:16.028Z,2708.00
2018-07-27T12:06:16.026Z,2612.00
2018-07-27T12:07:16.024Z,2628.00
2018-07-27T12:08:16.029Z,2584.00
2018-07-27T12:09:16.080Z,2608.00
2018-07-27T12:10:16.094Z,2472.00
2018-07-27T12:11:16.134Z,2828.00
2018-07-27T12:12:16.097Z,3212.00
2018-07-27T12:13:16.149Z,3476.00
2018-07-27T12:14:16.320Z,3384.00
2018-07-27T12:15:16.433Z,3180.00
2018-07-27T12:16:16.247Z,3788.00
2018-07-27T12:17:16.186Z,3304.00
2018-07-27T12:18:16.211Z,3104.00
2018-07-27T12:19:16.221Z,2972.00
2018-07-27T12:20:16.315Z,2836.00
2018-07-27T12:21:16.402Z,2868.00
2018-07-27T12:22:16.266Z,2244.00